sensor_id;sensor_type;location;lat;lon;timestamp;temperature;humidity
2282;DHT22;27486;48.77806476;9.16920056;2022-07-22T00:00:14;23.00;74.20
2282;DHT22;27486;48.77806476;9.16920056;2022-07-22T00:02:58;23.00;74.40
2282;DHT22;27486;48.77806476;9.16920056;2022-07-22T00:05:42;23.00;74.70
2282;DHT22;27486;48.77806476;9.16920056;2022-07-22T00:08:26;23.00;74.80
2282;DHT22;27486;48.77806476;9.16920056;2022-07-22T00:11:11;22.90;74.90
2282;DHT22;27486;48.77806476;9.16920056;2022-07-22T00:13:55;22.90;75.30
2282;DHT22;27486;48.77806476;9.16920056;2022-07-22T00:16:39;22.90;75.60
2282;DHT22;27486;48.77806476;9.16920056;2022-07-22T00:19:23;22.80;76.00
2282;DHT22;27486;48.77806476;9.16920056;2022-07-22T00:22:08;22.80;76.20
2282;DHT22;27486;48.77806476;9.16920056;2022-07-22T00:24:52;22.80;76.40
2282;DHT22;27486;48.77806476;9.16920056;2022-07-22T00:27:36;22.80;77.00
2282;DHT22;27486;48.77806476;9.16920056;2022-07-22T00:30:20;22.80;77.50
2282;DHT22;27486;48.77806476;9.16920056;2022-07-22T00:33:04;22.80;77.80
2282;DHT22;27486;48.77806476;9.16920056;2022-07-22T00:35:48;22.80;78.10
2282;DHT22;27486;48.77806476;9.16920056;2022-07-22T00:38:32;22.80;78.50
2282;DHT22;27486;48.77806476;9.16920056;2022-07-22T00:41:17;22.80;78.70
2282;DHT22;27486;48.77806476;9.16920056;2022-07-22T00:44:03;22.70;78.70
2282;DHT22;27486;48.77806476;9.16920056;2022-07-22T00:46:48;22.70;78.90
2282;DHT22;27486;48.77806476;9.16920056;2022-07-22T00:49:32;22.60;79.00
2282;DHT22;27486;48.77806476;9.16920056;2022-07-22T00:52:18;22.70;79.10
2282;DHT22;27486;48.77806476;9.16920056;2022-07-22T00:55:04;22.60;79.20
2282;DHT22;27486;48.77806476;9.16920056;2022-07-22T00:57:48;22.60;79.40
2282;DHT22;27486;48.77806476;9.16920056;2022-07-22T01:00:32;22.50;79.70
2282;DHT22;27486;48.77806476;9.16920056;2022-07-22T01:03:16;22.50;79.80
2282;DHT22;27486;48.77806476;9.16920056;2022-07-22T01:06:00;22.50;80.30
2282;DHT22;27486;48.77806476;9.16920056;2022-07-22T01:08:44;22.50;80.30
2282;DHT22;27486;48.77806476;9.16920056;2022-07-22T01:11:28;22.40;80.30
2282;DHT22;27486;48.77806476;9.16920056;2022-07-22T01:14:12;22.40;80.60
2282;DHT22;27486;48.77806476;9.16920056;2022-07-22T01:16:56;22.40;80.80
2282;DHT22;27486;48.77806476;9.16920056;2022-07-22T01:19:42;22.40;81.00
2282;DHT22;27486;48.77806476;9.16920056;2022-07-22T01:22:27;22.40;81.20
2282;DHT22;27486;48.77806476;9.16920056;2022-07-22T01:25:11;22.40;81.40
2282;DHT22;27486;48.77806476;9.16920056;2022-07-22T01:27:55;22.40;81.70
2282;DHT22;27486;48.77806476;9.16920056;2022-07-22T01:30:39;22.30;81.80
2282;DHT22;27486;48.77806476;9.16920056;2022-07-22T01:33:23;22.30;82.00
2282;DHT22;27486;48.77806476;9.16920056;2022-07-22T01:36:08;22.30;82.40
2282;DHT22;27486;48.77806476;9.16920056;2022-07-22T01:38:52;22.30;82.00
2282;DHT22;27486;48.77806476;9.16920056;2022-07-22T01:41:36;22.30;82.30
2282;DHT22;27486;48.77806476;9.16920056;2022-07-22T01:44:20;22.20;82.50
2282;DHT22;27486;48.77806476;9.16920056;2022-07-22T01:47:04;22.20;82.50
2282;DHT22;27486;48.77806476;9.16920056;2022-07-22T01:49:48;22.20;83.00
2282;DHT22;27486;48.77806476;9.16920056;2022-07-22T01:52:32;22.10;83.10
2282;DHT22;27486;48.77806476;9.16920056;2022-07-22T01:55:16;22.20;83.20
2282;DHT22;27486;48.77806476;9.16920056;2022-07-22T01:58:00;22.20;83.20
2282;DHT22;27486;48.77806476;9.16920056;2022-07-22T02:00:44;22.10;83.40
2282;DHT22;27486;48.77806476;9.16920056;2022-07-22T02:03:28;22.10;83.80
2282;DHT22;27486;48.77806476;9.16920056;2022-07-22T02:06:12;22.10;83.90
2282;DHT22;27486;48.77806476;9.16920056;2022-07-22T02:08:56;22.00;84.30
2282;DHT22;27486;48.77806476;9.16920056;2022-07-22T02:11:40;22.00;85.10
2282;DHT22;27486;48.77806476;9.16920056;2022-07-22T02:14:24;22.00;84.80
2282;DHT22;27486;48.77806476;9.16920056;2022-07-22T02:17:08;21.90;84.90
2282;DHT22;27486;48.77806476;9.16920056;2022-07-22T02:19:52;21.90;85.30
2282;DHT22;27486;48.77806476;9.16920056;2022-07-22T02:22:36;22.00;85.20
2282;DHT22;27486;48.77806476;9.16920056;2022-07-22T02:25:20;21.90;85.00
2282;DHT22;27486;48.77806476;9.16920056;2022-07-22T02:28:04;21.90;85.40
2282;DHT22;27486;48.77806476;9.16920056;2022-07-22T02:30:48;21.80;85.90
2282;DHT22;27486;48.77806476;9.16920056;2022-07-22T02:33:32;21.80;85.90
2282;DHT22;27486;48.77806476;9.16920056;2022-07-22T02:36:16;21.80;86.40
2282;DHT22;27486;48.77806476;9.16920056;2022-07-22T02:39:00;21.80;86.40
2282;DHT22;27486;48.77806476;9.16920056;2022-07-22T02:41:45;21.80;86.70
2282;DHT22;27486;48.77806476;9.16920056;2022-07-22T02:44:29;21.80;86.50
2282;DHT22;27486;48.77806476;9.16920056;2022-07-22T02:47:13;21.70;85.90
2282;DHT22;27486;48.77806476;9.16920056;2022-07-22T02:49:57;21.60;86.10
2282;DHT22;27486;48.77806476;9.16920056;2022-07-22T02:52:41;21.50;86.40
2282;DHT22;27486;48.77806476;9.16920056;2022-07-22T02:55:26;21.50;86.90
2282;DHT22;27486;48.77806476;9.16920056;2022-07-22T02:58:10;21.50;87.30
2282;DHT22;27486;48.77806476;9.16920056;2022-07-22T03:00:54;21.50;87.40
2282;DHT22;27486;48.77806476;9.16920056;2022-07-22T03:03:38;21.50;87.50
2282;DHT22;27486;48.77806476;9.16920056;2022-07-22T03:06:23;21.60;87.80
2282;DHT22;27486;48.77806476;9.16920056;2022-07-22T03:09:07;21.40;88.30
2282;DHT22;27486;48.77806476;9.16920056;2022-07-22T03:11:51;21.40;89.00
2282;DHT22;27486;48.77806476;9.16920056;2022-07-22T03:14:35;21.30;90.00
2282;DHT22;27486;48.77806476;9.16920056;2022-07-22T03:17:19;21.30;90.20
2282;DHT22;27486;48.77806476;9.16920056;2022-07-22T03:20:07;21.30;90.30
2282;DHT22;27486;48.77806476;9.16920056;2022-07-22T03:22:51;21.20;90.80
2282;DHT22;27486;48.77806476;9.16920056;2022-07-22T03:25:35;21.20;90.60
2282;DHT22;27486;48.77806476;9.16920056;2022-07-22T03:28:19;21.20;90.70
2282;DHT22;27486;48.77806476;9.16920056;2022-07-22T03:31:03;21.00;91.20
2282;DHT22;27486;48.77806476;9.16920056;2022-07-22T03:33:47;20.90;91.80
2282;DHT22;27486;48.77806476;9.16920056;2022-07-22T03:36:31;20.80;92.20
2282;DHT22;27486;48.77806476;9.16920056;2022-07-22T03:39:15;20.70;92.70
2282;DHT22;27486;48.77806476;9.16920056;2022-07-22T03:41:59;20.70;92.90
2282;DHT22;27486;48.77806476;9.16920056;2022-07-22T03:44:43;20.80;93.00
2282;DHT22;27486;48.77806476;9.16920056;2022-07-22T03:47:27;20.70;93.30
2282;DHT22;27486;48.77806476;9.16920056;2022-07-22T03:50:11;20.60;93.80
2282;DHT22;27486;48.77806476;9.16920056;2022-07-22T03:52:56;20.50;94.30
2282;DHT22;27486;48.77806476;9.16920056;2022-07-22T03:55:40;20.50;94.40
2282;DHT22;27486;48.77806476;9.16920056;2022-07-22T03:58:24;20.60;94.60
2282;DHT22;27486;48.77806476;9.16920056;2022-07-22T04:01:10;20.60;94.60
2282;DHT22;27486;48.77806476;9.16920056;2022-07-22T04:03:55;20.60;94.80
2282;DHT22;27486;48.77806476;9.16920056;2022-07-22T04:06:39;20.60;94.80
2282;DHT22;27486;48.77806476;9.16920056;2022-07-22T04:09:23;20.60;95.00
2282;DHT22;27486;48.77806476;9.16920056;2022-07-22T04:12:07;20.50;95.10
2282;DHT22;27486;48.77806476;9.16920056;2022-07-22T04:14:51;20.50;95.10
2282;DHT22;27486;48.77806476;9.16920056;2022-07-22T04:17:35;20.60;95.00
2282;DHT22;27486;48.77806476;9.16920056;2022-07-22T04:20:19;20.60;95.10
2282;DHT22;27486;48.77806476;9.16920056;2022-07-22T04:23:03;20.70;95.20
2282;DHT22;27486;48.77806476;9.16920056;2022-07-22T04:25:47;20.80;95.10
2282;DHT22;27486;48.77806476;9.16920056;2022-07-22T04:28:35;20.70;95.00
2282;DHT22;27486;48.77806476;9.16920056;2022-07-22T04:31:19;20.80;95.00
2282;DHT22;27486;48.77806476;9.16920056;2022-07-22T04:34:03;20.90;94.90
2282;DHT22;27486;48.77806476;9.16920056;2022-07-22T04:36:47;20.90;94.70
2282;DHT22;27486;48.77806476;9.16920056;2022-07-22T04:39:31;20.90;94.70
2282;DHT22;27486;48.77806476;9.16920056;2022-07-22T04:42:15;20.90;94.80
2282;DHT22;27486;48.77806476;9.16920056;2022-07-22T04:44:59;20.80;94.80
2282;DHT22;27486;48.77806476;9.16920056;2022-07-22T04:47:43;20.90;94.80
2282;DHT22;27486;48.77806476;9.16920056;2022-07-22T04:50:27;20.90;94.80
2282;DHT22;27486;48.77806476;9.16920056;2022-07-22T04:53:11;20.80;95.00
2282;DHT22;27486;48.77806476;9.16920056;2022-07-22T04:55:55;20.80;95.10
2282;DHT22;27486;48.77806476;9.16920056;2022-07-22T04:58:39;20.70;95.30
2282;DHT22;27486;48.77806476;9.16920056;2022-07-22T05:01:23;20.70;95.30
2282;DHT22;27486;48.77806476;9.16920056;2022-07-22T05:04:07;20.70;95.40
2282;DHT22;27486;48.77806476;9.16920056;2022-07-22T05:06:51;20.80;95.70
2282;DHT22;27486;48.77806476;9.16920056;2022-07-22T05:09:35;20.70;95.70
2282;DHT22;27486;48.77806476;9.16920056;2022-07-22T05:12:19;20.70;95.60
2282;DHT22;27486;48.77806476;9.16920056;2022-07-22T05:15:03;20.70;95.80
2282;DHT22;27486;48.77806476;9.16920056;2022-07-22T05:17:48;20.70;95.80
2282;DHT22;27486;48.77806476;9.16920056;2022-07-22T05:20:32;20.70;95.80
2282;DHT22;27486;48.77806476;9.16920056;2022-07-22T05:23:16;20.80;95.90
2282;DHT22;27486;48.77806476;9.16920056;2022-07-22T05:26:00;20.80;95.70
2282;DHT22;27486;48.77806476;9.16920056;2022-07-22T05:28:44;20.90;95.90
2282;DHT22;27486;48.77806476;9.16920056;2022-07-22T05:31:28;21.00;95.50
2282;DHT22;27486;48.77806476;9.16920056;2022-07-22T05:34:12;21.10;95.40
2282;DHT22;27486;48.77806476;9.16920056;2022-07-22T05:36:56;21.20;95.00
2282;DHT22;27486;48.77806476;9.16920056;2022-07-22T05:39:40;21.20;94.80
2282;DHT22;27486;48.77806476;9.16920056;2022-07-22T05:42:24;21.20;94.90
2282;DHT22;27486;48.77806476;9.16920056;2022-07-22T05:45:09;21.30;94.80
2282;DHT22;27486;48.77806476;9.16920056;2022-07-22T05:47:53;21.30;94.90
2282;DHT22;27486;48.77806476;9.16920056;2022-07-22T05:50:37;21.40;94.50
2282;DHT22;27486;48.77806476;9.16920056;2022-07-22T05:53:21;21.40;94.50
2282;DHT22;27486;48.77806476;9.16920056;2022-07-22T05:56:06;21.60;94.20
2282;DHT22;27486;48.77806476;9.16920056;2022-07-22T05:58:50;21.60;94.00
2282;DHT22;27486;48.77806476;9.16920056;2022-07-22T06:01:34;21.60;94.30
2282;DHT22;27486;48.77806476;9.16920056;2022-07-22T06:04:18;21.60;94.00
2282;DHT22;27486;48.77806476;9.16920056;2022-07-22T06:07:02;21.80;93.90
2282;DHT22;27486;48.77806476;9.16920056;2022-07-22T06:09:46;22.00;93.30
2282;DHT22;27486;48.77806476;9.16920056;2022-07-22T06:12:31;22.10;93.00
2282;DHT22;27486;48.77806476;9.16920056;2022-07-22T06:15:15;22.30;92.90
2282;DHT22;27486;48.77806476;9.16920056;2022-07-22T06:17:59;22.20;92.80
2282;DHT22;27486;48.77806476;9.16920056;2022-07-22T06:20:43;22.30;92.80
2282;DHT22;27486;48.77806476;9.16920056;2022-07-22T06:23:27;22.40;92.40
2282;DHT22;27486;48.77806476;9.16920056;2022-07-22T06:26:11;22.50;92.30
2282;DHT22;27486;48.77806476;9.16920056;2022-07-22T06:28:56;22.60;92.20
2282;DHT22;27486;48.77806476;9.16920056;2022-07-22T06:31:40;22.80;91.80
2282;DHT22;27486;48.77806476;9.16920056;2022-07-22T06:34:24;22.90;91.40
2282;DHT22;27486;48.77806476;9.16920056;2022-07-22T06:37:08;22.90;91.20
2282;DHT22;27486;48.77806476;9.16920056;2022-07-22T06:39:52;23.00;90.90
2282;DHT22;27486;48.77806476;9.16920056;2022-07-22T06:42:37;23.00;90.80
2282;DHT22;27486;48.77806476;9.16920056;2022-07-22T06:45:22;23.10;90.90
2282;DHT22;27486;48.77806476;9.16920056;2022-07-22T06:48:06;23.30;90.40
2282;DHT22;27486;48.77806476;9.16920056;2022-07-22T06:50:50;23.40;89.70
2282;DHT22;27486;48.77806476;9.16920056;2022-07-22T06:53:34;23.60;89.20
2282;DHT22;27486;48.77806476;9.16920056;2022-07-22T06:56:18;23.90;89.10
2282;DHT22;27486;48.77806476;9.16920056;2022-07-22T06:59:03;24.00;87.30
2282;DHT22;27486;48.77806476;9.16920056;2022-07-22T07:01:47;24.10;85.80
2282;DHT22;27486;48.77806476;9.16920056;2022-07-22T07:04:31;24.20;85.70
2282;DHT22;27486;48.77806476;9.16920056;2022-07-22T07:07:15;24.40;85.10
2282;DHT22;27486;48.77806476;9.16920056;2022-07-22T07:09:59;24.60;84.20
2282;DHT22;27486;48.77806476;9.16920056;2022-07-22T07:12:43;24.80;83.30
2282;DHT22;27486;48.77806476;9.16920056;2022-07-22T07:15:28;24.90;82.00
2282;DHT22;27486;48.77806476;9.16920056;2022-07-22T07:18:12;25.00;79.60
2282;DHT22;27486;48.77806476;9.16920056;2022-07-22T07:20:56;25.10;79.40
2282;DHT22;27486;48.77806476;9.16920056;2022-07-22T07:23:40;25.10;78.70
2282;DHT22;27486;48.77806476;9.16920056;2022-07-22T07:26:24;25.00;79.00
2282;DHT22;27486;48.77806476;9.16920056;2022-07-22T07:29:08;25.00;79.30
2282;DHT22;27486;48.77806476;9.16920056;2022-07-22T07:31:52;25.10;78.50
2282;DHT22;27486;48.77806476;9.16920056;2022-07-22T07:34:36;25.30;78.60
2282;DHT22;27486;48.77806476;9.16920056;2022-07-22T07:37:21;25.40;77.60
2282;DHT22;27486;48.77806476;9.16920056;2022-07-22T07:40:05;25.60;77.10
2282;DHT22;27486;48.77806476;9.16920056;2022-07-22T07:42:50;25.70;75.80
2282;DHT22;27486;48.77806476;9.16920056;2022-07-22T07:45:35;25.60;75.90
2282;DHT22;27486;48.77806476;9.16920056;2022-07-22T07:48:19;25.70;75.50
2282;DHT22;27486;48.77806476;9.16920056;2022-07-22T07:51:04;25.90;75.30
2282;DHT22;27486;48.77806476;9.16920056;2022-07-22T07:53:49;26.00;74.80
2282;DHT22;27486;48.77806476;9.16920056;2022-07-22T07:56:33;26.00;74.00
2282;DHT22;27486;48.77806476;9.16920056;2022-07-22T07:59:17;26.20;74.00
2282;DHT22;27486;48.77806476;9.16920056;2022-07-22T08:02:01;26.40;73.40
2282;DHT22;27486;48.77806476;9.16920056;2022-07-22T08:04:45;26.50;72.30
2282;DHT22;27486;48.77806476;9.16920056;2022-07-22T08:07:29;26.60;72.30
2282;DHT22;27486;48.77806476;9.16920056;2022-07-22T08:10:13;26.60;71.20
2282;DHT22;27486;48.77806476;9.16920056;2022-07-22T08:12:58;26.60;71.50
2282;DHT22;27486;48.77806476;9.16920056;2022-07-22T08:15:42;26.70;71.30
2282;DHT22;27486;48.77806476;9.16920056;2022-07-22T08:18:27;26.70;71.00
2282;DHT22;27486;48.77806476;9.16920056;2022-07-22T08:21:12;26.80;70.70
2282;DHT22;27486;48.77806476;9.16920056;2022-07-22T08:23:56;26.80;70.30
2282;DHT22;27486;48.77806476;9.16920056;2022-07-22T08:26:40;26.80;70.40
2282;DHT22;27486;48.77806476;9.16920056;2022-07-22T08:29:24;27.00;69.80
2282;DHT22;27486;48.77806476;9.16920056;2022-07-22T08:32:08;27.20;69.40
2282;DHT22;27486;48.77806476;9.16920056;2022-07-22T08:34:52;27.30;68.20
2282;DHT22;27486;48.77806476;9.16920056;2022-07-22T08:37:36;27.50;67.90
2282;DHT22;27486;48.77806476;9.16920056;2022-07-22T08:40:21;27.70;66.20
2282;DHT22;27486;48.77806476;9.16920056;2022-07-22T08:43:05;27.70;65.70
2282;DHT22;27486;48.77806476;9.16920056;2022-07-22T08:45:50;27.90;65.50
2282;DHT22;27486;48.77806476;9.16920056;2022-07-22T08:48:37;28.10;64.60
2282;DHT22;27486;48.77806476;9.16920056;2022-07-22T08:51:21;28.20;63.50
2282;DHT22;27486;48.77806476;9.16920056;2022-07-22T08:54:06;28.30;63.20
2282;DHT22;27486;48.77806476;9.16920056;2022-07-22T08:56:51;28.40;62.00
2282;DHT22;27486;48.77806476;9.16920056;2022-07-22T08:59:53;28.40;61.30
2282;DHT22;27486;48.77806476;9.16920056;2022-07-22T09:02:40;28.40;60.30
2282;DHT22;27486;48.77806476;9.16920056;2022-07-22T09:05:32;28.30;61.20
2282;DHT22;27486;48.77806476;9.16920056;2022-07-22T09:08:17;28.30;60.30
2282;DHT22;27486;48.77806476;9.16920056;2022-07-22T09:11:21;28.10;61.10
2282;DHT22;27486;48.77806476;9.16920056;2022-07-22T09:14:06;28.00;61.10
2282;DHT22;27486;48.77806476;9.16920056;2022-07-22T09:16:50;28.00;61.50
2282;DHT22;27486;48.77806476;9.16920056;2022-07-22T09:19:34;28.20;61.40
2282;DHT22;27486;48.77806476;9.16920056;2022-07-22T09:22:35;28.20;60.80
2282;DHT22;27486;48.77806476;9.16920056;2022-07-22T09:25:32;28.30;61.10
2282;DHT22;27486;48.77806476;9.16920056;2022-07-22T09:28:20;28.60;60.10
2282;DHT22;27486;48.77806476;9.16920056;2022-07-22T09:31:04;28.60;59.10
2282;DHT22;27486;48.77806476;9.16920056;2022-07-22T09:33:48;28.60;59.20
2282;DHT22;27486;48.77806476;9.16920056;2022-07-22T09:36:53;28.60;58.80
2282;DHT22;27486;48.77806476;9.16920056;2022-07-22T09:39:37;28.50;58.90
2282;DHT22;27486;48.77806476;9.16920056;2022-07-22T09:42:21;28.40;59.40
2282;DHT22;27486;48.77806476;9.16920056;2022-07-22T09:45:06;28.40;59.10
2282;DHT22;27486;48.77806476;9.16920056;2022-07-22T09:47:51;28.60;58.80
2282;DHT22;27486;48.77806476;9.16920056;2022-07-22T09:50:35;28.60;58.30
2282;DHT22;27486;48.77806476;9.16920056;2022-07-22T09:53:20;28.60;58.50
2282;DHT22;27486;48.77806476;9.16920056;2022-07-22T09:56:07;28.80;57.90
2282;DHT22;27486;48.77806476;9.16920056;2022-07-22T09:58:51;29.00;56.80
2282;DHT22;27486;48.77806476;9.16920056;2022-07-22T10:01:35;29.00;57.30
2282;DHT22;27486;48.77806476;9.16920056;2022-07-22T10:04:20;29.00;56.60
2282;DHT22;27486;48.77806476;9.16920056;2022-07-22T10:07:05;29.00;56.40
2282;DHT22;27486;48.77806476;9.16920056;2022-07-22T10:09:50;29.10;55.90
2282;DHT22;27486;48.77806476;9.16920056;2022-07-22T10:12:37;29.30;55.50
2282;DHT22;27486;48.77806476;9.16920056;2022-07-22T10:15:23;29.40;55.90
2282;DHT22;27486;48.77806476;9.16920056;2022-07-22T10:18:14;29.50;55.40
2282;DHT22;27486;48.77806476;9.16920056;2022-07-22T10:21:08;29.80;55.50
2282;DHT22;27486;48.77806476;9.16920056;2022-07-22T10:24:13;30.20;54.90
2282;DHT22;27486;48.77806476;9.16920056;2022-07-22T10:26:58;30.40;53.10
2282;DHT22;27486;48.77806476;9.16920056;2022-07-22T10:29:42;30.60;52.30
2282;DHT22;27486;48.77806476;9.16920056;2022-07-22T10:32:32;30.70;51.90
2282;DHT22;27486;48.77806476;9.16920056;2022-07-22T10:35:21;30.80;51.60
2282;DHT22;27486;48.77806476;9.16920056;2022-07-22T10:38:08;30.80;51.40
2282;DHT22;27486;48.77806476;9.16920056;2022-07-22T10:46:47;31.40;51.00
2282;DHT22;27486;48.77806476;9.16920056;2022-07-22T10:49:31;31.40;49.70
2282;DHT22;27486;48.77806476;9.16920056;2022-07-22T10:52:15;31.40;50.40
2282;DHT22;27486;48.77806476;9.16920056;2022-07-22T10:55:20;31.30;49.60
2282;DHT22;27486;48.77806476;9.16920056;2022-07-22T11:01:23;31.30;49.10
2282;DHT22;27486;48.77806476;9.16920056;2022-07-22T11:04:13;31.30;49.30
2282;DHT22;27486;48.77806476;9.16920056;2022-07-22T11:06:58;31.30;49.20
2282;DHT22;27486;48.77806476;9.16920056;2022-07-22T11:09:42;31.40;49.10
2282;DHT22;27486;48.77806476;9.16920056;2022-07-22T11:12:26;31.50;48.80
2282;DHT22;27486;48.77806476;9.16920056;2022-07-22T11:15:10;31.60;48.60
2282;DHT22;27486;48.77806476;9.16920056;2022-07-22T11:17:56;31.60;48.40
2282;DHT22;27486;48.77806476;9.16920056;2022-07-22T11:20:41;31.70;48.20
2282;DHT22;27486;48.77806476;9.16920056;2022-07-22T11:23:25;31.70;47.90
2282;DHT22;27486;48.77806476;9.16920056;2022-07-22T11:26:13;31.60;47.70
2282;DHT22;27486;48.77806476;9.16920056;2022-07-22T11:28:57;31.50;47.90
2282;DHT22;27486;48.77806476;9.16920056;2022-07-22T11:31:42;31.60;48.10
2282;DHT22;27486;48.77806476;9.16920056;2022-07-22T11:34:27;31.70;47.70
2282;DHT22;27486;48.77806476;9.16920056;2022-07-22T11:37:13;31.90;46.90
2282;DHT22;27486;48.77806476;9.16920056;2022-07-22T11:40:06;32.10;46.90
2282;DHT22;27486;48.77806476;9.16920056;2022-07-22T11:43:02;32.20;45.40
2282;DHT22;27486;48.77806476;9.16920056;2022-07-22T11:45:56;32.30;44.80
2282;DHT22;27486;48.77806476;9.16920056;2022-07-22T11:48:42;32.30;45.20
2282;DHT22;27486;48.77806476;9.16920056;2022-07-22T11:51:31;32.50;45.10
2282;DHT22;27486;48.77806476;9.16920056;2022-07-22T11:54:15;32.50;42.00
2282;DHT22;27486;48.77806476;9.16920056;2022-07-22T11:56:59;32.60;41.90
2282;DHT22;27486;48.77806476;9.16920056;2022-07-22T11:59:43;32.80;42.40
2282;DHT22;27486;48.77806476;9.16920056;2022-07-22T12:02:27;33.00;40.80
2282;DHT22;27486;48.77806476;9.16920056;2022-07-22T12:05:12;33.10;41.00
2282;DHT22;27486;48.77806476;9.16920056;2022-07-22T12:07:56;33.30;40.90
2282;DHT22;27486;48.77806476;9.16920056;2022-07-22T12:10:42;33.40;40.20
2282;DHT22;27486;48.77806476;9.16920056;2022-07-22T12:13:30;33.50;40.20
2282;DHT22;27486;48.77806476;9.16920056;2022-07-22T12:16:25;33.60;38.60
2282;DHT22;27486;48.77806476;9.16920056;2022-07-22T12:19:12;33.50;38.60
2282;DHT22;27486;48.77806476;9.16920056;2022-07-22T12:21:59;33.60;38.60
2282;DHT22;27486;48.77806476;9.16920056;2022-07-22T12:24:46;33.60;37.30
2282;DHT22;27486;48.77806476;9.16920056;2022-07-22T12:27:39;33.70;38.00
2282;DHT22;27486;48.77806476;9.16920056;2022-07-22T12:30:23;33.80;37.40
2282;DHT22;27486;48.77806476;9.16920056;2022-07-22T12:33:14;33.90;36.40
2282;DHT22;27486;48.77806476;9.16920056;2022-07-22T12:36:01;34.00;37.20
2282;DHT22;27486;48.77806476;9.16920056;2022-07-22T12:38:46;34.00;37.10
2282;DHT22;27486;48.77806476;9.16920056;2022-07-22T12:41:29;34.10;36.40
2282;DHT22;27486;48.77806476;9.16920056;2022-07-22T12:44:18;34.10;37.20
2282;DHT22;27486;48.77806476;9.16920056;2022-07-22T12:47:03;34.20;36.20
2282;DHT22;27486;48.77806476;9.16920056;2022-07-22T12:49:47;34.30;35.40
2282;DHT22;27486;48.77806476;9.16920056;2022-07-22T12:52:31;34.20;34.00
2282;DHT22;27486;48.77806476;9.16920056;2022-07-22T12:55:15;34.10;35.10
2282;DHT22;27486;48.77806476;9.16920056;2022-07-22T12:57:59;34.20;35.10
2282;DHT22;27486;48.77806476;9.16920056;2022-07-22T13:00:52;34.20;34.90
2282;DHT22;27486;48.77806476;9.16920056;2022-07-22T13:03:37;34.20;35.40
2282;DHT22;27486;48.77806476;9.16920056;2022-07-22T13:06:21;34.20;36.20
2282;DHT22;27486;48.77806476;9.16920056;2022-07-22T13:09:05;34.30;36.90
2282;DHT22;27486;48.77806476;9.16920056;2022-07-22T13:11:49;34.40;36.10
2282;DHT22;27486;48.77806476;9.16920056;2022-07-22T13:14:33;34.50;35.70
2282;DHT22;27486;48.77806476;9.16920056;2022-07-22T13:17:17;34.60;35.30
2282;DHT22;27486;48.77806476;9.16920056;2022-07-22T13:20:04;34.60;35.40
2282;DHT22;27486;48.77806476;9.16920056;2022-07-22T13:22:48;34.50;34.70
2282;DHT22;27486;48.77806476;9.16920056;2022-07-22T13:25:33;34.50;34.70
2282;DHT22;27486;48.77806476;9.16920056;2022-07-22T13:28:17;34.50;35.10
2282;DHT22;27486;48.77806476;9.16920056;2022-07-22T13:31:01;34.30;34.60
2282;DHT22;27486;48.77806476;9.16920056;2022-07-22T13:33:45;34.30;34.10
2282;DHT22;27486;48.77806476;9.16920056;2022-07-22T13:36:29;34.20;34.70
2282;DHT22;27486;48.77806476;9.16920056;2022-07-22T13:39:16;34.20;34.90
2282;DHT22;27486;48.77806476;9.16920056;2022-07-22T13:42:00;34.40;34.40
2282;DHT22;27486;48.77806476;9.16920056;2022-07-22T13:44:45;34.50;34.00
2282;DHT22;27486;48.77806476;9.16920056;2022-07-22T13:47:29;34.80;34.20
2282;DHT22;27486;48.77806476;9.16920056;2022-07-22T13:50:13;35.20;33.70
2282;DHT22;27486;48.77806476;9.16920056;2022-07-22T13:52:57;35.70;33.00
2282;DHT22;27486;48.77806476;9.16920056;2022-07-22T13:55:42;36.20;31.50
2282;DHT22;27486;48.77806476;9.16920056;2022-07-22T13:58:26;36.60;31.30
2282;DHT22;27486;48.77806476;9.16920056;2022-07-22T14:01:11;37.20;30.20
2282;DHT22;27486;48.77806476;9.16920056;2022-07-22T14:03:55;37.70;29.70
2282;DHT22;27486;48.77806476;9.16920056;2022-07-22T14:06:39;37.90;28.00
2282;DHT22;27486;48.77806476;9.16920056;2022-07-22T14:09:23;37.80;27.70
2282;DHT22;27486;48.77806476;9.16920056;2022-07-22T14:12:08;37.70;27.30
2282;DHT22;27486;48.77806476;9.16920056;2022-07-22T14:14:52;37.50;27.40
2282;DHT22;27486;48.77806476;9.16920056;2022-07-22T14:17:36;37.50;27.60
2282;DHT22;27486;48.77806476;9.16920056;2022-07-22T14:20:20;37.40;28.00
2282;DHT22;27486;48.77806476;9.16920056;2022-07-22T14:23:04;37.70;28.20
2282;DHT22;27486;48.77806476;9.16920056;2022-07-22T14:25:48;38.20;27.50
2282;DHT22;27486;48.77806476;9.16920056;2022-07-22T14:28:32;38.80;26.70
2282;DHT22;27486;48.77806476;9.16920056;2022-07-22T14:31:17;39.60;26.30
2282;DHT22;27486;48.77806476;9.16920056;2022-07-22T14:34:01;40.20;25.40
2282;DHT22;27486;48.77806476;9.16920056;2022-07-22T14:36:45;40.70;25.00
2282;DHT22;27486;48.77806476;9.16920056;2022-07-22T14:39:30;41.20;24.20
2282;DHT22;27486;48.77806476;9.16920056;2022-07-22T14:42:14;41.50;24.00
2282;DHT22;27486;48.77806476;9.16920056;2022-07-22T14:44:58;42.00;23.40
2282;DHT22;27486;48.77806476;9.16920056;2022-07-22T14:47:42;42.30;22.80
2282;DHT22;27486;48.77806476;9.16920056;2022-07-22T14:50:26;42.60;22.70
2282;DHT22;27486;48.77806476;9.16920056;2022-07-22T14:53:10;43.10;22.80
2282;DHT22;27486;48.77806476;9.16920056;2022-07-22T14:55:54;43.80;22.30
2282;DHT22;27486;48.77806476;9.16920056;2022-07-22T14:58:38;44.30;21.60
2282;DHT22;27486;48.77806476;9.16920056;2022-07-22T15:01:22;44.90;21.00
2282;DHT22;27486;48.77806476;9.16920056;2022-07-22T15:04:06;45.30;20.40
2282;DHT22;27486;48.77806476;9.16920056;2022-07-22T15:06:50;45.70;19.80
2282;DHT22;27486;48.77806476;9.16920056;2022-07-22T15:09:34;46.10;19.10
2282;DHT22;27486;48.77806476;9.16920056;2022-07-22T15:12:18;46.50;18.50
2282;DHT22;27486;48.77806476;9.16920056;2022-07-22T15:15:02;47.10;18.60
2282;DHT22;27486;48.77806476;9.16920056;2022-07-22T15:17:47;47.50;18.20
2282;DHT22;27486;48.77806476;9.16920056;2022-07-22T15:20:31;48.10;17.80